Stanhope, New Jersey
Current Conditions -  °F | °C
As of 6:45 AM on Monday 24 Nov 2014 (Local Time) from KMMU Reporting Station
Light Rain Light Rain  
Wind Chill: 18°   Ceiling: 1000
Heat Index: 18°   Visibility: 5mi
Dew Point: 16°   Wind: 17mph
Humidity: 88%   Direction: 210°SSW
Pressure: 29.68"   Gusts: 23mph
Location:  40.9°N, 74.71°W
Report Text: KMMU 241145Z 21015G20KT 5SM -RA OVC010 18/16 A2968
Loading
Personal Weather Stations






























Interactive Weather Map New forecast layout! Learn more

10-Day Weather Forecast

Advertisements
Track Severe Weather on mobile